sensor_id;sensor_type;location;lat;lon;timestamp;temperature;humidity
40848;DHT22;26570;50.962;5.340;2024-02-15T00:01:48;13.90;99.90
40848;DHT22;26570;50.962;5.340;2024-02-15T00:04:36;14.00;99.90
40848;DHT22;26570;50.962;5.340;2024-02-15T00:07:35;13.80;99.90
40848;DHT22;26570;50.962;5.340;2024-02-15T00:10:23;13.90;99.90
40848;DHT22;26570;50.962;5.340;2024-02-15T00:13:31;13.90;99.90
40848;DHT22;26570;50.962;5.340;2024-02-15T00:16:18;13.80;99.90
40848;DHT22;26570;50.962;5.340;2024-02-15T00:19:43;13.80;99.90
40848;DHT22;26570;50.962;5.340;2024-02-15T00:22:28;13.80;99.90
40848;DHT22;26570;50.962;5.340;2024-02-15T00:25:33;13.90;99.90
40848;DHT22;26570;50.962;5.340;2024-02-15T00:28:18;13.90;99.90
40848;DHT22;26570;50.962;5.340;2024-02-15T00:31:04;13.80;99.90
40848;DHT22;26570;50.962;5.340;2024-02-15T00:33:53;13.70;99.90
40848;DHT22;26570;50.962;5.340;2024-02-15T00:37:17;13.80;99.90
40848;DHT22;26570;50.962;5.340;2024-02-15T00:40:03;13.90;99.90
40848;DHT22;26570;50.962;5.340;2024-02-15T00:42:58;13.90;99.90
40848;DHT22;26570;50.962;5.340;2024-02-15T00:45:46;13.90;99.90
40848;DHT22;26570;50.962;5.340;2024-02-15T00:49:01;14.00;99.90
40848;DHT22;26570;50.962;5.340;2024-02-15T00:51:51;14.00;99.90
40848;DHT22;26570;50.962;5.340;2024-02-15T00:54:47;13.90;99.90
40848;DHT22;26570;50.962;5.340;2024-02-15T00:57:32;13.90;99.90
40848;DHT22;26570;50.962;5.340;2024-02-15T01:00:22;13.90;99.90
40848;DHT22;26570;50.962;5.340;2024-02-15T01:03:25;13.90;99.90
40848;DHT22;26570;50.962;5.340;2024-02-15T01:06:31;13.60;99.90
40848;DHT22;26570;50.962;5.340;2024-02-15T01:09:23;13.70;99.90
40848;DHT22;26570;50.962;5.340;2024-02-15T01:12:33;13.70;99.90
40848;DHT22;26570;50.962;5.340;2024-02-15T01:15:21;13.70;99.90
40848;DHT22;26570;50.962;5.340;2024-02-15T01:18:10;13.70;99.90
40848;DHT22;26570;50.962;5.340;2024-02-15T01:21:10;13.80;99.90
40848;DHT22;26570;50.962;5.340;2024-02-15T01:23:56;13.90;99.90
40848;DHT22;26570;50.962;5.340;2024-02-15T01:27:00;13.90;99.90
40848;DHT22;26570;50.962;5.340;2024-02-15T01:29:47;13.90;99.90
40848;DHT22;26570;50.962;5.340;2024-02-15T01:32:56;13.80;99.90
40848;DHT22;26570;50.962;5.340;2024-02-15T01:35:44;13.70;99.90
40848;DHT22;26570;50.962;5.340;2024-02-15T01:38:29;13.60;99.90
40848;DHT22;26570;50.962;5.340;2024-02-15T01:41:16;13.80;99.90
40848;DHT22;26570;50.962;5.340;2024-02-15T01:44:10;13.90;99.90
40848;DHT22;26570;50.962;5.340;2024-02-15T01:47:00;13.70;99.90
40848;DHT22;26570;50.962;5.340;2024-02-15T01:50:17;13.80;99.90
40848;DHT22;26570;50.962;5.340;2024-02-15T01:53:15;13.80;99.90
40848;DHT22;26570;50.962;5.340;2024-02-15T01:56:00;13.90;99.90
40848;DHT22;26570;50.962;5.340;2024-02-15T01:59:11;13.90;99.90
40848;DHT22;26570;50.962;5.340;2024-02-15T02:02:01;13.90;99.90
40848;DHT22;26570;50.962;5.340;2024-02-15T02:05:11;13.90;99.90
40848;DHT22;26570;50.962;5.340;2024-02-15T02:08:19;13.90;99.90
40848;DHT22;26570;50.962;5.340;2024-02-15T02:11:04;13.80;99.90
40848;DHT22;26570;50.962;5.340;2024-02-15T02:13:58;13.90;99.90
40848;DHT22;26570;50.962;5.340;2024-02-15T02:16:43;14.00;99.90
40848;DHT22;26570;50.962;5.340;2024-02-15T02:19:31;13.90;99.90
40848;DHT22;26570;50.962;5.340;2024-02-15T02:22:20;13.90;99.90
40848;DHT22;26570;50.962;5.340;2024-02-15T02:25:17;13.90;99.90
40848;DHT22;26570;50.962;5.340;2024-02-15T02:28:10;13.80;99.90
40848;DHT22;26570;50.962;5.340;2024-02-15T02:30:56;13.70;99.90
40848;DHT22;26570;50.962;5.340;2024-02-15T02:33:47;13.70;99.90
40848;DHT22;26570;50.962;5.340;2024-02-15T02:36:35;13.70;99.90
40848;DHT22;26570;50.962;5.340;2024-02-15T02:39:51;13.80;99.90
40848;DHT22;26570;50.962;5.340;2024-02-15T02:42:58;14.00;99.90
40848;DHT22;26570;50.962;5.340;2024-02-15T02:45:44;14.00;99.90
40848;DHT22;26570;50.962;5.340;2024-02-15T02:48:30;13.90;99.90
40848;DHT22;26570;50.962;5.340;2024-02-15T02:51:23;14.00;99.90
40848;DHT22;26570;50.962;5.340;2024-02-15T02:54:11;14.10;99.90
40848;DHT22;26570;50.962;5.340;2024-02-15T02:57:40;14.10;99.90
40848;DHT22;26570;50.962;5.340;2024-02-15T03:00:51;13.90;99.90
40848;DHT22;26570;50.962;5.340;2024-02-15T03:03:39;13.90;99.90
40848;DHT22;26570;50.962;5.340;2024-02-15T03:06:46;13.90;99.90
40848;DHT22;26570;50.962;5.340;2024-02-15T03:09:35;13.80;99.90
40848;DHT22;26570;50.962;5.340;2024-02-15T03:12:26;13.70;99.90
40848;DHT22;26570;50.962;5.340;2024-02-15T03:15:22;13.80;99.90
40848;DHT22;26570;50.962;5.340;2024-02-15T03:18:11;13.80;99.90
40848;DHT22;26570;50.962;5.340;2024-02-15T03:21:20;14.10;99.90
40848;DHT22;26570;50.962;5.340;2024-02-15T03:24:07;14.00;99.90
40848;DHT22;26570;50.962;5.340;2024-02-15T03:27:00;13.90;99.90
40848;DHT22;26570;50.962;5.340;2024-02-15T03:29:45;13.90;99.90
40848;DHT22;26570;50.962;5.340;2024-02-15T03:32:31;14.00;99.90
40848;DHT22;26570;50.962;5.340;2024-02-15T03:35:47;13.90;99.90
40848;DHT22;26570;50.962;5.340;2024-02-15T03:38:32;14.00;99.90
40848;DHT22;26570;50.962;5.340;2024-02-15T03:41:18;13.80;99.90
40848;DHT22;26570;50.962;5.340;2024-02-15T03:44:12;13.80;99.90
40848;DHT22;26570;50.962;5.340;2024-02-15T03:47:37;13.90;99.90
40848;DHT22;26570;50.962;5.340;2024-02-15T03:50:44;14.00;99.90
40848;DHT22;26570;50.962;5.340;2024-02-15T03:53:30;14.00;99.90
40848;DHT22;26570;50.962;5.340;2024-02-15T03:56:19;13.90;99.90
40848;DHT22;26570;50.962;5.340;2024-02-15T04:03:51;14.00;99.90
40848;DHT22;26570;50.962;5.340;2024-02-15T04:11:23;14.10;99.90
40848;DHT22;26570;50.962;5.340;2024-02-15T04:19:24;14.00;99.90
40848;DHT22;26570;50.962;5.340;2024-02-15T04:30:12;13.60;99.90
40848;DHT22;26570;50.962;5.340;2024-02-15T04:34:05;13.60;99.90
40848;DHT22;26570;50.962;5.340;2024-02-15T04:40:52;13.60;99.90
40848;DHT22;26570;50.962;5.340;2024-02-15T04:43:46;13.60;99.90
40848;DHT22;26570;50.962;5.340;2024-02-15T04:46:57;13.50;99.90
40848;DHT22;26570;50.962;5.340;2024-02-15T04:50:24;13.60;99.90
40848;DHT22;26570;50.962;5.340;2024-02-15T04:53:36;13.50;99.90
40848;DHT22;26570;50.962;5.340;2024-02-15T04:56:56;13.60;99.90
40848;DHT22;26570;50.962;5.340;2024-02-15T05:00:26;13.70;99.90
40848;DHT22;26570;50.962;5.340;2024-02-15T05:14:54;13.70;99.90
40848;DHT22;26570;50.962;5.340;2024-02-15T05:18:34;13.70;99.90
40848;DHT22;26570;50.962;5.340;2024-02-15T05:21:33;13.60;99.90
40848;DHT22;26570;50.962;5.340;2024-02-15T05:24:39;13.50;99.90
40848;DHT22;26570;50.962;5.340;2024-02-15T05:27:32;13.40;99.90
40848;DHT22;26570;50.962;5.340;2024-02-15T05:37:28;13.50;99.90
40848;DHT22;26570;50.962;5.340;2024-02-15T05:45:33;13.60;99.90
40848;DHT22;26570;50.962;5.340;2024-02-15T05:48:18;13.60;99.90
40848;DHT22;26570;50.962;5.340;2024-02-15T05:52:10;13.60;99.90
40848;DHT22;26570;50.962;5.340;2024-02-15T05:56:13;13.50;99.90
40848;DHT22;26570;50.962;5.340;2024-02-15T06:03:05;13.40;99.90
40848;DHT22;26570;50.962;5.340;2024-02-15T06:10:47;13.60;99.90
40848;DHT22;26570;50.962;5.340;2024-02-15T06:14:23;13.70;99.90
40848;DHT22;26570;50.962;5.340;2024-02-15T06:17:08;13.70;99.90
40848;DHT22;26570;50.962;5.340;2024-02-15T06:20:00;13.40;99.90
40848;DHT22;26570;50.962;5.340;2024-02-15T06:23:21;13.30;99.90
40848;DHT22;26570;50.962;5.340;2024-02-15T06:26:51;13.30;99.90
40848;DHT22;26570;50.962;5.340;2024-02-15T06:30:43;13.40;99.90
40848;DHT22;26570;50.962;5.340;2024-02-15T06:33:53;13.40;99.90
40848;DHT22;26570;50.962;5.340;2024-02-15T06:37:39;13.30;99.90
40848;DHT22;26570;50.962;5.340;2024-02-15T06:40:42;13.40;99.90
40848;DHT22;26570;50.962;5.340;2024-02-15T06:43:27;13.40;99.90
40848;DHT22;26570;50.962;5.340;2024-02-15T06:46:11;13.30;99.90
40848;DHT22;26570;50.962;5.340;2024-02-15T06:48:57;13.20;99.90
40848;DHT22;26570;50.962;5.340;2024-02-15T06:51:43;13.10;99.90
40848;DHT22;26570;50.962;5.340;2024-02-15T06:54:50;13.10;99.90
40848;DHT22;26570;50.962;5.340;2024-02-15T06:57:37;13.00;99.90
40848;DHT22;26570;50.962;5.340;2024-02-15T07:00:24;13.00;99.90
40848;DHT22;26570;50.962;5.340;2024-02-15T07:03:10;13.10;99.90
40848;DHT22;26570;50.962;5.340;2024-02-15T07:05:57;13.20;99.90
40848;DHT22;26570;50.962;5.340;2024-02-15T07:08:43;13.20;99.90
40848;DHT22;26570;50.962;5.340;2024-02-15T07:11:51;13.10;99.90
40848;DHT22;26570;50.962;5.340;2024-02-15T07:14:35;13.20;99.90
40848;DHT22;26570;50.962;5.340;2024-02-15T07:17:20;13.30;99.90
40848;DHT22;26570;50.962;5.340;2024-02-15T07:20:06;13.40;99.90
40848;DHT22;26570;50.962;5.340;2024-02-15T07:22:51;13.50;99.90
40848;DHT22;26570;50.962;5.340;2024-02-15T07:25:36;13.50;99.90
40848;DHT22;26570;50.962;5.340;2024-02-15T07:28:21;13.50;99.90
40848;DHT22;26570;50.962;5.340;2024-02-15T07:31:06;13.50;99.90
40848;DHT22;26570;50.962;5.340;2024-02-15T07:33:51;13.70;99.90
40848;DHT22;26570;50.962;5.340;2024-02-15T07:36:36;13.60;99.90
40848;DHT22;26570;50.962;5.340;2024-02-15T07:39:24;13.50;99.90
40848;DHT22;26570;50.962;5.340;2024-02-15T07:42:09;13.70;99.90
40848;DHT22;26570;50.962;5.340;2024-02-15T07:45:17;13.70;99.90
40848;DHT22;26570;50.962;5.340;2024-02-15T07:48:04;13.80;99.90
40848;DHT22;26570;50.962;5.340;2024-02-15T07:50:49;13.90;99.90
40848;DHT22;26570;50.962;5.340;2024-02-15T07:53:34;13.90;99.90
40848;DHT22;26570;50.962;5.340;2024-02-15T07:56:19;13.90;99.90
40848;DHT22;26570;50.962;5.340;2024-02-15T07:59:04;14.00;99.90
40848;DHT22;26570;50.962;5.340;2024-02-15T08:01:49;14.00;99.90
40848;DHT22;26570;50.962;5.340;2024-02-15T08:04:34;14.00;99.90
40848;DHT22;26570;50.962;5.340;2024-02-15T08:07:47;14.10;99.90
40848;DHT22;26570;50.962;5.340;2024-02-15T08:10:32;14.10;99.90
40848;DHT22;26570;50.962;5.340;2024-02-15T08:13:18;14.10;99.90
40848;DHT22;26570;50.962;5.340;2024-02-15T08:16:07;14.10;99.90
40848;DHT22;26570;50.962;5.340;2024-02-15T08:18:53;14.30;99.90
40848;DHT22;26570;50.962;5.340;2024-02-15T08:21:41;14.10;99.90
40848;DHT22;26570;50.962;5.340;2024-02-15T08:24:30;14.40;99.90
40848;DHT22;26570;50.962;5.340;2024-02-15T08:27:15;14.40;99.90
40848;DHT22;26570;50.962;5.340;2024-02-15T08:30:00;14.40;99.90
40848;DHT22;26570;50.962;5.340;2024-02-15T08:32:47;14.50;99.90
40848;DHT22;26570;50.962;5.340;2024-02-15T08:35:33;14.50;99.90
40848;DHT22;26570;50.962;5.340;2024-02-15T08:38:18;14.50;99.90
40848;DHT22;26570;50.962;5.340;2024-02-15T08:41:03;14.40;99.90
40848;DHT22;26570;50.962;5.340;2024-02-15T08:43:53;14.40;99.90
40848;DHT22;26570;50.962;5.340;2024-02-15T08:46:37;14.50;99.90
40848;DHT22;26570;50.962;5.340;2024-02-15T08:49:22;14.60;99.90
40848;DHT22;26570;50.962;5.340;2024-02-15T08:52:07;14.70;99.90
40848;DHT22;26570;50.962;5.340;2024-02-15T08:54:52;14.80;99.90
40848;DHT22;26570;50.962;5.340;2024-02-15T08:57:37;14.80;99.90
40848;DHT22;26570;50.962;5.340;2024-02-15T09:00:25;14.70;99.90
40848;DHT22;26570;50.962;5.340;2024-02-15T09:03:12;14.70;99.90
40848;DHT22;26570;50.962;5.340;2024-02-15T09:05:56;14.70;99.90
40848;DHT22;26570;50.962;5.340;2024-02-15T09:08:44;14.80;99.90
40848;DHT22;26570;50.962;5.340;2024-02-15T09:11:29;14.80;99.90
40848;DHT22;26570;50.962;5.340;2024-02-15T09:14:14;14.80;99.90
40848;DHT22;26570;50.962;5.340;2024-02-15T09:17:00;14.80;99.90
40848;DHT22;26570;50.962;5.340;2024-02-15T09:19:47;14.90;99.90
40848;DHT22;26570;50.962;5.340;2024-02-15T09:22:34;14.90;99.90
40848;DHT22;26570;50.962;5.340;2024-02-15T09:25:21;15.10;99.90
40848;DHT22;26570;50.962;5.340;2024-02-15T09:28:09;15.10;99.90
40848;DHT22;26570;50.962;5.340;2024-02-15T09:30:54;15.30;99.90
40848;DHT22;26570;50.962;5.340;2024-02-15T09:33:44;15.40;99.90
40848;DHT22;26570;50.962;5.340;2024-02-15T09:36:34;15.50;99.90
40848;DHT22;26570;50.962;5.340;2024-02-15T09:39:22;15.50;99.90
40848;DHT22;26570;50.962;5.340;2024-02-15T09:42:08;15.50;99.90
40848;DHT22;26570;50.962;5.340;2024-02-15T09:44:53;15.70;99.90
40848;DHT22;26570;50.962;5.340;2024-02-15T09:47:39;15.70;99.90
40848;DHT22;26570;50.962;5.340;2024-02-15T09:50:31;15.90;99.90
40848;DHT22;26570;50.962;5.340;2024-02-15T09:53:22;16.00;99.90
40848;DHT22;26570;50.962;5.340;2024-02-15T09:56:10;16.10;99.90
40848;DHT22;26570;50.962;5.340;2024-02-15T09:58:55;16.10;99.90
40848;DHT22;26570;50.962;5.340;2024-02-15T10:01:40;16.40;99.90
40848;DHT22;26570;50.962;5.340;2024-02-15T10:04:26;16.50;99.90
40848;DHT22;26570;50.962;5.340;2024-02-15T10:07:13;16.80;99.90
40848;DHT22;26570;50.962;5.340;2024-02-15T10:10:14;16.70;99.90
40848;DHT22;26570;50.962;5.340;2024-02-15T10:13:01;16.80;99.90
40848;DHT22;26570;50.962;5.340;2024-02-15T10:15:46;17.00;99.90
40848;DHT22;26570;50.962;5.340;2024-02-15T10:18:32;17.00;99.90
40848;DHT22;26570;50.962;5.340;2024-02-15T10:21:27;17.10;99.90
40848;DHT22;26570;50.962;5.340;2024-02-15T10:24:18;17.20;99.90
40848;DHT22;26570;50.962;5.340;2024-02-15T10:27:04;17.20;99.90
40848;DHT22;26570;50.962;5.340;2024-02-15T10:29:51;17.10;99.90
40848;DHT22;26570;50.962;5.340;2024-02-15T10:32:37;17.10;99.90
40848;DHT22;26570;50.962;5.340;2024-02-15T10:35:23;17.20;99.90
40848;DHT22;26570;50.962;5.340;2024-02-15T10:38:30;17.30;99.90
40848;DHT22;26570;50.962;5.340;2024-02-15T10:41:17;17.50;99.90
40848;DHT22;26570;50.962;5.340;2024-02-15T10:44:02;17.60;99.90
40848;DHT22;26570;50.962;5.340;2024-02-15T10:47:11;17.70;99.90
40848;DHT22;26570;50.962;5.340;2024-02-15T10:49:57;17.70;99.90
40848;DHT22;26570;50.962;5.340;2024-02-15T10:52:55;17.50;99.90
40848;DHT22;26570;50.962;5.340;2024-02-15T10:59:00;17.50;99.90
40848;DHT22;26570;50.962;5.340;2024-02-15T11:01:49;17.70;99.90
40848;DHT22;26570;50.962;5.340;2024-02-15T11:04:41;17.80;99.90
40848;DHT22;26570;50.962;5.340;2024-02-15T11:07:30;18.10;99.90
40848;DHT22;26570;50.962;5.340;2024-02-15T11:10:15;18.10;99.90
40848;DHT22;26570;50.962;5.340;2024-02-15T11:13:02;18.20;99.90
40848;DHT22;26570;50.962;5.340;2024-02-15T11:15:47;18.20;99.90
40848;DHT22;26570;50.962;5.340;2024-02-15T11:18:50;18.20;99.90
40848;DHT22;26570;50.962;5.340;2024-02-15T11:21:55;18.40;99.90
40848;DHT22;26570;50.962;5.340;2024-02-15T11:25:06;18.50;99.90
40848;DHT22;26570;50.962;5.340;2024-02-15T11:27:53;18.50;99.90
40848;DHT22;26570;50.962;5.340;2024-02-15T11:30:38;18.60;99.90
40848;DHT22;26570;50.962;5.340;2024-02-15T11:33:33;18.70;99.90
40848;DHT22;26570;50.962;5.340;2024-02-15T11:36:30;18.80;99.90
40848;DHT22;26570;50.962;5.340;2024-02-15T11:39:42;18.90;99.90
40848;DHT22;26570;50.962;5.340;2024-02-15T11:42:29;19.00;99.90
40848;DHT22;26570;50.962;5.340;2024-02-15T11:45:36;18.80;99.90
40848;DHT22;26570;50.962;5.340;2024-02-15T11:48:52;19.00;99.90
40848;DHT22;26570;50.962;5.340;2024-02-15T11:51:38;19.00;99.90
40848;DHT22;26570;50.962;5.340;2024-02-15T11:54:32;19.10;99.90
40848;DHT22;26570;50.962;5.340;2024-02-15T11:57:40;19.00;99.90
40848;DHT22;26570;50.962;5.340;2024-02-15T12:00:36;18.70;99.90
40848;DHT22;26570;50.962;5.340;2024-02-15T12:03:39;18.70;99.90
40848;DHT22;26570;50.962;5.340;2024-02-15T12:06:42;18.70;99.90
40848;DHT22;26570;50.962;5.340;2024-02-15T12:09:46;18.80;99.90
40848;DHT22;26570;50.962;5.340;2024-02-15T12:12:54;18.70;99.90
40848;DHT22;26570;50.962;5.340;2024-02-15T12:16:00;18.50;99.90
40848;DHT22;26570;50.962;5.340;2024-02-15T12:19:04;18.50;99.90
40848;DHT22;26570;50.962;5.340;2024-02-15T12:21:49;18.60;99.90
40848;DHT22;26570;50.962;5.340;2024-02-15T12:24:34;18.60;99.90
40848;DHT22;26570;50.962;5.340;2024-02-15T12:27:19;18.70;99.90
40848;DHT22;26570;50.962;5.340;2024-02-15T12:30:05;18.90;99.90
40848;DHT22;26570;50.962;5.340;2024-02-15T12:32:52;18.90;99.90
40848;DHT22;26570;50.962;5.340;2024-02-15T12:35:37;19.10;99.90
40848;DHT22;26570;50.962;5.340;2024-02-15T12:38:22;19.30;99.90
40848;DHT22;26570;50.962;5.340;2024-02-15T12:41:20;19.40;99.90
40848;DHT22;26570;50.962;5.340;2024-02-15T12:44:06;19.20;99.90
40848;DHT22;26570;50.962;5.340;2024-02-15T12:46:55;19.10;99.90
40848;DHT22;26570;50.962;5.340;2024-02-15T12:50:14;19.10;99.90
40848;DHT22;26570;50.962;5.340;2024-02-15T12:53:00;19.20;99.90
40848;DHT22;26570;50.962;5.340;2024-02-15T12:55:59;19.40;99.90
40848;DHT22;26570;50.962;5.340;2024-02-15T12:58:43;19.20;99.90
40848;DHT22;26570;50.962;5.340;2024-02-15T13:01:29;18.90;99.90
40848;DHT22;26570;50.962;5.340;2024-02-15T13:04:24;19.00;99.90
40848;DHT22;26570;50.962;5.340;2024-02-15T13:07:13;19.10;99.90
40848;DHT22;26570;50.962;5.340;2024-02-15T13:09:58;19.10;99.90
40848;DHT22;26570;50.962;5.340;2024-02-15T13:12:43;19.20;99.90
40848;DHT22;26570;50.962;5.340;2024-02-15T13:15:29;19.40;99.90
40848;DHT22;26570;50.962;5.340;2024-02-15T13:18:17;19.10;99.90
40848;DHT22;26570;50.962;5.340;2024-02-15T13:21:02;19.20;99.90
40848;DHT22;26570;50.962;5.340;2024-02-15T13:23:50;19.10;99.90
40848;DHT22;26570;50.962;5.340;2024-02-15T13:26:57;19.20;99.90
40848;DHT22;26570;50.962;5.340;2024-02-15T13:29:42;19.10;99.90
40848;DHT22;26570;50.962;5.340;2024-02-15T13:32:28;19.10;99.90
40848;DHT22;26570;50.962;5.340;2024-02-15T13:35:16;18.80;99.90
40848;DHT22;26570;50.962;5.340;2024-02-15T13:38:04;18.70;99.90
40848;DHT22;26570;50.962;5.340;2024-02-15T13:40:50;18.50;99.90
40848;DHT22;26570;50.962;5.340;2024-02-15T13:43:36;18.50;99.90
40848;DHT22;26570;50.962;5.340;2024-02-15T13:46:21;18.50;99.90
40848;DHT22;26570;50.962;5.340;2024-02-15T13:49:06;18.60;99.90
40848;DHT22;26570;50.962;5.340;2024-02-15T13:51:51;18.70;99.90
40848;DHT22;26570;50.962;5.340;2024-02-15T13:54:36;18.90;99.90
40848;DHT22;26570;50.962;5.340;2024-02-15T13:57:22;19.10;99.90
40848;DHT22;26570;50.962;5.340;2024-02-15T14:00:30;19.50;99.90
40848;DHT22;26570;50.962;5.340;2024-02-15T14:03:18;19.40;99.90
40848;DHT22;26570;50.962;5.340;2024-02-15T14:06:06;19.50;99.90
40848;DHT22;26570;50.962;5.340;2024-02-15T14:08:51;19.50;99.90
40848;DHT22;26570;50.962;5.340;2024-02-15T14:11:36;19.40;99.90
40848;DHT22;26570;50.962;5.340;2024-02-15T14:14:22;19.40;99.90
40848;DHT22;26570;50.962;5.340;2024-02-15T14:17:07;19.50;99.90
40848;DHT22;26570;50.962;5.340;2024-02-15T14:19:52;19.60;99.90
40848;DHT22;26570;50.962;5.340;2024-02-15T14:22:37;19.80;99.90
40848;DHT22;26570;50.962;5.340;2024-02-15T14:25:23;19.80;99.90
40848;DHT22;26570;50.962;5.340;2024-02-15T14:28:11;19.80;99.90
40848;DHT22;26570;50.962;5.340;2024-02-15T14:30:57;19.90;99.90
40848;DHT22;26570;50.962;5.340;2024-02-15T14:34:00;19.90;99.90
40848;DHT22;26570;50.962;5.340;2024-02-15T14:36:45;20.00;99.90
40848;DHT22;26570;50.962;5.340;2024-02-15T14:39:32;20.00;99.90
40848;DHT22;26570;50.962;5.340;2024-02-15T14:42:18;19.90;99.90
40848;DHT22;26570;50.962;5.340;2024-02-15T14:45:05;19.90;99.90
40848;DHT22;26570;50.962;5.340;2024-02-15T14:47:51;19.90;99.90
40848;DHT22;26570;50.962;5.340;2024-02-15T14:50:36;19.70;99.90
40848;DHT22;26570;50.962;5.340;2024-02-15T14:53:22;19.60;99.90
40848;DHT22;26570;50.962;5.340;2024-02-15T14:56:07;19.50;99.90
40848;DHT22;26570;50.962;5.340;2024-02-15T14:58:52;19.50;99.90
40848;DHT22;26570;50.962;5.340;2024-02-15T15:01:38;19.50;99.90
40848;DHT22;26570;50.962;5.340;2024-02-15T15:04:25;19.60;99.90
40848;DHT22;26570;50.962;5.340;2024-02-15T15:07:20;19.70;99.90
40848;DHT22;26570;50.962;5.340;2024-02-15T15:10:23;19.60;99.90
40848;DHT22;26570;50.962;5.340;2024-02-15T15:13:27;19.60;99.90
40848;DHT22;26570;50.962;5.340;2024-02-15T15:16:12;19.40;99.90
40848;DHT22;26570;50.962;5.340;2024-02-15T15:19:02;19.30;99.90
40848;DHT22;26570;50.962;5.340;2024-02-15T15:21:47;19.30;99.90
40848;DHT22;26570;50.962;5.340;2024-02-15T15:24:32;19.20;99.90
40848;DHT22;26570;50.962;5.340;2024-02-15T15:27:17;19.00;99.90
40848;DHT22;26570;50.962;5.340;2024-02-15T15:30:04;18.90;99.90
40848;DHT22;26570;50.962;5.340;2024-02-15T15:32:49;18.80;99.90
40848;DHT22;26570;50.962;5.340;2024-02-15T15:35:34;18.80;99.90
40848;DHT22;26570;50.962;5.340;2024-02-15T15:38:19;18.80;99.90
40848;DHT22;26570;50.962;5.340;2024-02-15T15:41:07;18.90;99.90
40848;DHT22;26570;50.962;5.340;2024-02-15T15:44:16;18.80;99.90
40848;DHT22;26570;50.962;5.340;2024-02-15T15:47:00;18.60;99.90
40848;DHT22;26570;50.962;5.340;2024-02-15T15:49:45;18.60;99.90
40848;DHT22;26570;50.962;5.340;2024-02-15T15:52:30;18.30;99.90
40848;DHT22;26570;50.962;5.340;2024-02-15T15:55:15;18.20;99.90
40848;DHT22;26570;50.962;5.340;2024-02-15T15:58:01;18.10;99.90
40848;DHT22;26570;50.962;5.340;2024-02-15T16:00:46;17.90;99.90
40848;DHT22;26570;50.962;5.340;2024-02-15T16:03:31;17.70;99.90
40848;DHT22;26570;50.962;5.340;2024-02-15T16:06:16;17.50;99.90
40848;DHT22;26570;50.962;5.340;2024-02-15T16:09:01;17.50;99.90
40848;DHT22;26570;50.962;5.340;2024-02-15T16:11:48;17.30;99.90
40848;DHT22;26570;50.962;5.340;2024-02-15T16:14:34;17.20;99.90
40848;DHT22;26570;50.962;5.340;2024-02-15T16:17:23;17.10;99.90
40848;DHT22;26570;50.962;5.340;2024-02-15T16:20:09;17.00;99.90
40848;DHT22;26570;50.962;5.340;2024-02-15T16:22:55;17.00;99.90
40848;DHT22;26570;50.962;5.340;2024-02-15T16:25:40;17.00;99.90
40848;DHT22;26570;50.962;5.340;2024-02-15T16:28:25;16.80;99.90
40848;DHT22;26570;50.962;5.340;2024-02-15T16:31:10;16.90;99.90
40848;DHT22;26570;50.962;5.340;2024-02-15T16:34:00;16.90;99.90
40848;DHT22;26570;50.962;5.340;2024-02-15T16:36:51;16.70;99.90
40848;DHT22;26570;50.962;5.340;2024-02-15T16:39:36;16.60;99.90
40848;DHT22;26570;50.962;5.340;2024-02-15T16:42:21;16.50;99.90
40848;DHT22;26570;50.962;5.340;2024-02-15T16:45:09;16.40;99.90
40848;DHT22;26570;50.962;5.340;2024-02-15T16:47:57;16.30;99.90
40848;DHT22;26570;50.962;5.340;2024-02-15T16:51:06;16.20;99.90
40848;DHT22;26570;50.962;5.340;2024-02-15T16:53:54;16.20;99.90
40848;DHT22;26570;50.962;5.340;2024-02-15T16:56:40;16.20;99.90
40848;DHT22;26570;50.962;5.340;2024-02-15T16:59:26;15.90;99.90
40848;DHT22;26570;50.962;5.340;2024-02-15T17:02:11;15.70;99.90
40848;DHT22;26570;50.962;5.340;2024-02-15T17:04:56;15.50;99.90
40848;DHT22;26570;50.962;5.340;2024-02-15T17:07:41;15.20;99.90
40848;DHT22;26570;50.962;5.340;2024-02-15T17:10:25;15.10;99.90
40848;DHT22;26570;50.962;5.340;2024-02-15T17:13:10;15.00;99.90
40848;DHT22;26570;50.962;5.340;2024-02-15T17:15:56;15.00;99.90
40848;DHT22;26570;50.962;5.340;2024-02-15T17:18:41;15.00;99.90
40848;DHT22;26570;50.962;5.340;2024-02-15T17:21:49;14.90;99.90
40848;DHT22;26570;50.962;5.340;2024-02-15T17:24:35;14.70;99.90
40848;DHT22;26570;50.962;5.340;2024-02-15T17:27:20;14.60;99.90
40848;DHT22;26570;50.962;5.340;2024-02-15T17:30:09;14.50;99.90
40848;DHT22;26570;50.962;5.340;2024-02-15T17:32:56;14.40;99.90
40848;DHT22;26570;50.962;5.340;2024-02-15T17:35:41;14.40;99.90
40848;DHT22;26570;50.962;5.340;2024-02-15T17:38:26;14.40;99.90
40848;DHT22;26570;50.962;5.340;2024-02-15T17:41:12;14.40;99.90
40848;DHT22;26570;50.962;5.340;2024-02-15T17:43:57;14.50;99.90
40848;DHT22;26570;50.962;5.340;2024-02-15T17:46:45;14.30;99.90
40848;DHT22;26570;50.962;5.340;2024-02-15T17:49:30;14.00;99.90
40848;DHT22;26570;50.962;5.340;2024-02-15T17:52:16;14.50;99.90
40848;DHT22;26570;50.962;5.340;2024-02-15T17:55:02;14.50;99.90
40848;DHT22;26570;50.962;5.340;2024-02-15T17:57:50;14.40;99.90
40848;DHT22;26570;50.962;5.340;2024-02-15T18:00:35;14.50;99.90
40848;DHT22;26570;50.962;5.340;2024-02-15T18:03:20;14.50;99.90
40848;DHT22;26570;50.962;5.340;2024-02-15T18:06:08;14.70;99.90
40848;DHT22;26570;50.962;5.340;2024-02-15T18:08:56;14.50;99.90
40848;DHT22;26570;50.962;5.340;2024-02-15T18:11:42;14.50;99.90
40848;DHT22;26570;50.962;5.340;2024-02-15T18:14:27;14.60;99.90
40848;DHT22;26570;50.962;5.340;2024-02-15T18:17:12;14.80;99.90
40848;DHT22;26570;50.962;5.340;2024-02-15T18:19:57;14.90;99.90
40848;DHT22;26570;50.962;5.340;2024-02-15T18:22:41;14.90;99.90
40848;DHT22;26570;50.962;5.340;2024-02-15T18:25:27;14.80;99.90
40848;DHT22;26570;50.962;5.340;2024-02-15T18:28:13;14.80;99.90
40848;DHT22;26570;50.962;5.340;2024-02-15T18:30:59;14.90;99.90
40848;DHT22;26570;50.962;5.340;2024-02-15T18:33:44;15.00;99.90
40848;DHT22;26570;50.962;5.340;2024-02-15T18:36:32;14.90;99.90
40848;DHT22;26570;50.962;5.340;2024-02-15T18:39:17;14.80;99.90
40848;DHT22;26570;50.962;5.340;2024-02-15T18:42:03;14.70;99.90
40848;DHT22;26570;50.962;5.340;2024-02-15T18:44:50;14.70;99.90
40848;DHT22;26570;50.962;5.340;2024-02-15T18:47:35;14.90;99.90
40848;DHT22;26570;50.962;5.340;2024-02-15T18:50:22;15.00;99.90
40848;DHT22;26570;50.962;5.340;2024-02-15T18:53:08;15.00;99.90
40848;DHT22;26570;50.962;5.340;2024-02-15T18:55:54;15.00;99.90
40848;DHT22;26570;50.962;5.340;2024-02-15T18:58:40;15.00;99.90
40848;DHT22;26570;50.962;5.340;2024-02-15T19:01:24;14.90;99.90
40848;DHT22;26570;50.962;5.340;2024-02-15T19:04:32;14.90;99.90
40848;DHT22;26570;50.962;5.340;2024-02-15T19:07:17;14.90;99.90
40848;DHT22;26570;50.962;5.340;2024-02-15T19:10:02;14.80;99.90